Terminal Aerodrome Forecast
Issued by NWS

Home | Current Version | Previous Version | Text Only | Print | Product List | Glossary On
Versions: 1 2 3 4 5 6 7 8 9 10 11 12 13
505
FTUS44 KBMX 241139
TAFANB
TAF
KANB 241139Z 2412/2512 03004KT P6SM SCT250
     FM241400 08006KT P6SM FEW045
     FM250000 08003KT P6SM SCT150=

USA.gov is the U.S. government's official web portal to all federal, state and local government web resources and services.